sensor_id;sensor_type;location;lat;lon;timestamp;temperature;humidity
77218;DHT22;66214;51.302;17.068;2023-04-03T07:49:35;3.15;68.37
77218;DHT22;66214;51.302;17.068;2023-04-03T07:52:07;2.98;67.70
77218;DHT22;66214;51.302;17.068;2023-04-03T07:54:38;2.85;68.21
77218;DHT22;66214;51.302;17.068;2023-04-03T07:57:10;2.70;68.39
77218;DHT22;66214;51.302;17.068;2023-04-03T07:59:46;2.56;68.47
77218;DHT22;66214;51.302;17.068;2023-04-03T08:02:48;2.47;68.50
77218;DHT22;66214;51.302;17.068;2023-04-03T08:05:20;2.43;68.32
77218;DHT22;66214;51.302;17.068;2023-04-03T08:07:55;2.39;68.04
77218;DHT22;66214;51.302;17.068;2023-04-03T08:10:29;2.39;67.83
77218;DHT22;66214;51.302;17.068;2023-04-03T08:12:58;2.45;68.54
77218;DHT22;66214;51.302;17.068;2023-04-03T08:15:26;2.60;68.23
77218;DHT22;66214;51.302;17.068;2023-04-03T08:17:57;2.69;67.49
77218;DHT22;66214;51.302;17.068;2023-04-03T08:20:26;2.85;67.29
77218;DHT22;66214;51.302;17.068;2023-04-03T08:22:55;2.91;65.40
77218;DHT22;66214;51.302;17.068;2023-04-03T08:25:23;2.95;65.30
77218;DHT22;66214;51.302;17.068;2023-04-03T08:27:51;3.00;64.05
77218;DHT22;66214;51.302;17.068;2023-04-03T08:30:19;3.05;63.51
77218;DHT22;66214;51.302;17.068;2023-04-03T08:32:47;3.09;63.99
77218;DHT22;66214;51.302;17.068;2023-04-03T08:35:15;3.29;63.92
77218;DHT22;66214;51.302;17.068;2023-04-03T08:37:43;3.63;63.11
77218;DHT22;66214;51.302;17.068;2023-04-03T08:40:15;3.92;62.41
77218;DHT22;66214;51.302;17.068;2023-04-03T08:43:00;4.11;60.44
77218;DHT22;66214;51.302;17.068;2023-04-03T08:45:48;4.20;60.23
77218;DHT22;66214;51.302;17.068;2023-04-03T08:48:23;4.14;58.87
77218;DHT22;66214;51.302;17.068;2023-04-03T08:51:04;4.13;59.72
77218;DHT22;66214;51.302;17.068;2023-04-03T08:53:53;4.30;58.61
77218;DHT22;66214;51.302;17.068;2023-04-03T08:56:29;4.60;58.91
77218;DHT22;66214;51.302;17.068;2023-04-03T08:59:00;4.81;57.01
77218;DHT22;66214;51.302;17.068;2023-04-03T09:01:38;5.04;56.13
77218;DHT22;66214;51.302;17.068;2023-04-03T09:04:15;5.35;57.57
77218;DHT22;66214;51.302;17.068;2023-04-03T09:06:45;5.45;55.58
77218;DHT22;66214;51.302;17.068;2023-04-03T09:09:25;5.25;54.61
77218;DHT22;66214;51.302;17.068;2023-04-03T09:17:45;5.37;57.17
77218;DHT22;66214;51.302;17.068;2023-04-03T09:23:18;5.65;56.68
77218;DHT22;66214;51.302;17.068;2023-04-03T09:25:53;5.99;53.89
77218;DHT22;66214;51.302;17.068;2023-04-03T09:28:34;6.28;52.11
77218;DHT22;66214;51.302;17.068;2023-04-03T09:31:13;6.59;51.98
77218;DHT22;66214;51.302;17.068;2023-04-03T09:34:09;6.94;49.59
77218;DHT22;66214;51.302;17.068;2023-04-03T09:37:03;7.08;45.76
77218;DHT22;66214;51.302;17.068;2023-04-03T09:39:52;7.03;45.21
77218;DHT22;66214;51.302;17.068;2023-04-03T09:42:23;7.44;49.02
77218;DHT22;66214;51.302;17.068;2023-04-03T09:44:53;7.84;48.72
77218;DHT22;66214;51.302;17.068;2023-04-03T09:47:34;7.89;45.93
77218;DHT22;66214;51.302;17.068;2023-04-03T09:52:41;7.71;45.77
77218;DHT22;66214;51.302;17.068;2023-04-03T09:55:16;7.38;45.26
77218;DHT22;66214;51.302;17.068;2023-04-03T09:57:46;7.19;45.26
77218;DHT22;66214;51.302;17.068;2023-04-03T10:00:20;7.12;44.61
77218;DHT22;66214;51.302;17.068;2023-04-03T10:02:55;7.03;45.67
77218;DHT22;66214;51.302;17.068;2023-04-03T10:05:34;6.95;45.41
77218;DHT22;66214;51.302;17.068;2023-04-03T10:10:44;7.06;45.77
77218;DHT22;66214;51.302;17.068;2023-04-03T10:13:16;7.26;45.55
77218;DHT22;66214;51.302;17.068;2023-04-03T10:15:55;7.23;45.33
77218;DHT22;66214;51.302;17.068;2023-04-03T10:21:29;7.17;45.83
77218;DHT22;66214;51.302;17.068;2023-04-03T10:32:54;6.81;46.51
77218;DHT22;66214;51.302;17.068;2023-04-03T10:45:24;8.52;42.70
77218;DHT22;66214;51.302;17.068;2023-04-03T10:51:05;7.88;43.25
77218;DHT22;66214;51.302;17.068;2023-04-03T10:57:10;9.19;42.16
77218;DHT22;66214;51.302;17.068;2023-04-03T10:59:46;10.04;39.49
77218;DHT22;66214;51.302;17.068;2023-04-03T11:02:30;10.06;38.94
77218;DHT22;66214;51.302;17.068;2023-04-03T11:05:07;11.01;40.23
77218;DHT22;66214;51.302;17.068;2023-04-03T11:11:11;12.97;38.57
77218;DHT22;66214;51.302;17.068;2023-04-03T11:16:29;13.79;33.88
77218;DHT22;66214;51.302;17.068;2023-04-03T11:24:28;11.98;34.33
77218;DHT22;66214;51.302;17.068;2023-04-03T11:27:00;11.53;34.67
77218;DHT22;66214;51.302;17.068;2023-04-03T11:29:35;10.72;35.32
77218;DHT22;66214;51.302;17.068;2023-04-03T11:35:25;12.20;34.72
77218;DHT22;66214;51.302;17.068;2023-04-03T11:37:55;12.79;35.13
77218;DHT22;66214;51.302;17.068;2023-04-03T11:40:26;12.13;33.50
77218;DHT22;66214;51.302;17.068;2023-04-03T11:46:02;12.44;33.32
77218;DHT22;66214;51.302;17.068;2023-04-03T11:53:43;14.69;32.60
77218;DHT22;66214;51.302;17.068;2023-04-03T11:59:47;12.20;33.84
77218;DHT22;66214;51.302;17.068;2023-04-03T12:05:46;10.32;34.50
77218;DHT22;66214;51.302;17.068;2023-04-03T12:08:22;11.49;34.64
77218;DHT22;66214;51.302;17.068;2023-04-03T12:27:33;10.32;33.87
77218;DHT22;66214;51.302;17.068;2023-04-03T12:30:03;10.68;34.23
77218;DHT22;66214;51.302;17.068;2023-04-03T12:32:43;11.30;32.30
77218;DHT22;66214;51.302;17.068;2023-04-03T12:41:37;13.22;31.04
77218;DHT22;66214;51.302;17.068;2023-04-03T12:44:35;12.63;31.39
77218;DHT22;66214;51.302;17.068;2023-04-03T12:47:24;12.78;32.18
77218;DHT22;66214;51.302;17.068;2023-04-03T12:50:13;13.91;32.13
77218;DHT22;66214;51.302;17.068;2023-04-03T12:52:59;12.94;31.01
77218;DHT22;66214;51.302;17.068;2023-04-03T12:55:31;11.93;31.80
77218;DHT22;66214;51.302;17.068;2023-04-03T13:01:04;13.56;31.38
77218;DHT22;66214;51.302;17.068;2023-04-03T13:03:44;14.35;29.08
77218;DHT22;66214;51.302;17.068;2023-04-03T13:06:19;14.99;30.26
77218;DHT22;66214;51.302;17.068;2023-04-03T13:08:55;14.24;30.25
77218;DHT22;66214;51.302;17.068;2023-04-03T13:11:30;12.88;30.28
77218;DHT22;66214;51.302;17.068;2023-04-03T13:14:03;12.98;30.55
77218;DHT22;66214;51.302;17.068;2023-04-03T13:16:52;13.76;29.78
77218;DHT22;66214;51.302;17.068;2023-04-03T13:19:37;14.38;28.32
77218;DHT22;66214;51.302;17.068;2023-04-03T13:22:06;14.96;27.89
77218;DHT22;66214;51.302;17.068;2023-04-03T13:24:47;15.21;29.05
77218;DHT22;66214;51.302;17.068;2023-04-03T13:27:18;14.35;28.73
77218;DHT22;66214;51.302;17.068;2023-04-03T13:29:50;12.80;27.54
77218;DHT22;66214;51.302;17.068;2023-04-03T13:32:24;11.77;28.74
77218;DHT22;66214;51.302;17.068;2023-04-03T13:34:56;12.57;28.83
77218;DHT22;66214;51.302;17.068;2023-04-03T13:37:30;13.69;29.25
77218;DHT22;66214;51.302;17.068;2023-04-03T13:42:35;13.49;30.42
77218;DHT22;66214;51.302;17.068;2023-04-03T13:45:21;12.84;31.09
77218;DHT22;66214;51.302;17.068;2023-04-03T13:53:33;13.38;29.99
77218;DHT22;66214;51.302;17.068;2023-04-03T13:56:32;14.28;28.70
77218;DHT22;66214;51.302;17.068;2023-04-03T14:01:52;14.44;27.88
77218;DHT22;66214;51.302;17.068;2023-04-03T14:07:08;16.14;27.62
77218;DHT22;66214;51.302;17.068;2023-04-03T14:09:36;16.95;26.36
77218;DHT22;66214;51.302;17.068;2023-04-03T14:12:06;17.36;25.91
77218;DHT22;66214;51.302;17.068;2023-04-03T14:14:55;16.73;25.24
77218;DHT22;66214;51.302;17.068;2023-04-03T14:17:24;15.80;25.89
77218;DHT22;66214;51.302;17.068;2023-04-03T14:19:54;14.10;26.70
77218;DHT22;66214;51.302;17.068;2023-04-03T14:22:28;12.71;28.54
77218;DHT22;66214;51.302;17.068;2023-04-03T14:25:01;11.65;30.02
77218;DHT22;66214;51.302;17.068;2023-04-03T14:27:36;10.85;31.27
77218;DHT22;66214;51.302;17.068;2023-04-03T14:30:12;10.30;32.18
77218;DHT22;66214;51.302;17.068;2023-04-03T14:32:45;9.95;32.81
77218;DHT22;66214;51.302;17.068;2023-04-03T14:35:15;9.79;32.85
77218;DHT22;66214;51.302;17.068;2023-04-03T14:37:45;10.06;32.65
77218;DHT22;66214;51.302;17.068;2023-04-03T14:40:16;10.78;32.37
77218;DHT22;66214;51.302;17.068;2023-04-03T14:42:51;11.05;31.31
77218;DHT22;66214;51.302;17.068;2023-04-03T14:45:22;10.42;32.59
77218;DHT22;66214;51.302;17.068;2023-04-03T14:47:52;9.74;33.62
77218;DHT22;66214;51.302;17.068;2023-04-03T14:50:24;9.12;34.51
77218;DHT22;66214;51.302;17.068;2023-04-03T14:52:56;8.65;35.38
77218;DHT22;66214;51.302;17.068;2023-04-03T14:55:26;8.28;35.94
77218;DHT22;66214;51.302;17.068;2023-04-03T14:57:54;8.16;35.95
77218;DHT22;66214;51.302;17.068;2023-04-03T15:03:49;8.22;36.98
77218;DHT22;66214;51.302;17.068;2023-04-03T15:06:17;8.86;35.90
77218;DHT22;66214;51.302;17.068;2023-04-03T15:08:46;8.38;36.49
77218;DHT22;66214;51.302;17.068;2023-04-03T15:11:17;7.97;36.91
77218;DHT22;66214;51.302;17.068;2023-04-03T15:13:45;7.75;37.32
77218;DHT22;66214;51.302;17.068;2023-04-03T15:16:17;7.58;38.27
77218;DHT22;66214;51.302;17.068;2023-04-03T15:18:47;7.41;39.05
77218;DHT22;66214;51.302;17.068;2023-04-03T15:21:16;7.24;39.16
77218;DHT22;66214;51.302;17.068;2023-04-03T15:23:44;7.09;39.51
77218;DHT22;66214;51.302;17.068;2023-04-03T15:26:13;7.03;39.95
77218;DHT22;66214;51.302;17.068;2023-04-03T15:28:41;6.85;40.22
77218;DHT22;66214;51.302;17.068;2023-04-03T15:31:11;6.65;40.53
77218;DHT22;66214;51.302;17.068;2023-04-03T15:33:39;6.52;41.10
77218;DHT22;66214;51.302;17.068;2023-04-03T15:36:08;6.33;42.13
77218;DHT22;66214;51.302;17.068;2023-04-03T15:38:36;6.18;42.21
77218;DHT22;66214;51.302;17.068;2023-04-03T15:41:05;5.97;43.65
77218;DHT22;66214;51.302;17.068;2023-04-03T15:43:33;5.79;44.01
77218;DHT22;66214;51.302;17.068;2023-04-03T15:46:02;5.75;43.58
77218;DHT22;66214;51.302;17.068;2023-04-03T15:48:31;5.60;44.10
77218;DHT22;66214;51.302;17.068;2023-04-03T15:50:59;5.58;44.09
77218;DHT22;66214;51.302;17.068;2023-04-03T15:53:27;5.60;43.89
77218;DHT22;66214;51.302;17.068;2023-04-03T15:55:56;5.61;44.55
77218;DHT22;66214;51.302;17.068;2023-04-03T15:58:24;5.56;44.17
77218;DHT22;66214;51.302;17.068;2023-04-03T16:00:52;5.49;44.63
77218;DHT22;66214;51.302;17.068;2023-04-03T16:03:21;5.43;44.78
77218;DHT22;66214;51.302;17.068;2023-04-03T16:05:51;5.38;44.43
77218;DHT22;66214;51.302;17.068;2023-04-03T16:08:20;5.29;45.30
77218;DHT22;66214;51.302;17.068;2023-04-03T16:10:48;5.25;44.92
77218;DHT22;66214;51.302;17.068;2023-04-03T16:13:16;5.19;45.36
77218;DHT22;66214;51.302;17.068;2023-04-03T16:15:44;5.07;45.88
77218;DHT22;66214;51.302;17.068;2023-04-03T16:18:12;5.00;46.08
77218;DHT22;66214;51.302;17.068;2023-04-03T16:20:41;4.92;46.38
77218;DHT22;66214;51.302;17.068;2023-04-03T16:23:11;4.86;46.22
77218;DHT22;66214;51.302;17.068;2023-04-03T16:25:39;4.76;46.81
77218;DHT22;66214;51.302;17.068;2023-04-03T16:28:13;4.68;46.87
77218;DHT22;66214;51.302;17.068;2023-04-03T16:30:43;4.63;46.34
77218;DHT22;66214;51.302;17.068;2023-04-03T16:33:14;4.57;46.17
77218;DHT22;66214;51.302;17.068;2023-04-03T16:35:42;4.51;46.31
77218;DHT22;66214;51.302;17.068;2023-04-03T16:38:12;4.44;46.42
77218;DHT22;66214;51.302;17.068;2023-04-03T16:40:40;4.40;46.36
77218;DHT22;66214;51.302;17.068;2023-04-03T16:43:09;4.40;46.26
77218;DHT22;66214;51.302;17.068;2023-04-03T16:45:38;4.37;46.55
77218;DHT22;66214;51.302;17.068;2023-04-03T16:48:07;4.37;46.30
77218;DHT22;66214;51.302;17.068;2023-04-03T16:50:36;4.36;46.61
77218;DHT22;66214;51.302;17.068;2023-04-03T16:56:39;4.30;47.06
77218;DHT22;66214;51.302;17.068;2023-04-03T16:59:08;4.28;46.85
77218;DHT22;66214;51.302;17.068;2023-04-03T17:01:37;4.26;46.79
77218;DHT22;66214;51.302;17.068;2023-04-03T17:04:06;4.25;47.11
77218;DHT22;66214;51.302;17.068;2023-04-03T17:06:34;4.21;47.04
77218;DHT22;66214;51.302;17.068;2023-04-03T17:09:02;4.20;47.10
77218;DHT22;66214;51.302;17.068;2023-04-03T17:11:31;4.19;47.10
77218;DHT22;66214;51.302;17.068;2023-04-03T17:14:00;4.18;47.73
77218;DHT22;66214;51.302;17.068;2023-04-03T17:16:29;4.14;47.34
77218;DHT22;66214;51.302;17.068;2023-04-03T17:19:00;4.12;47.28
77218;DHT22;66214;51.302;17.068;2023-04-03T17:21:31;4.11;47.58
77218;DHT22;66214;51.302;17.068;2023-04-03T17:24:02;4.08;48.04
77218;DHT22;66214;51.302;17.068;2023-04-03T17:26:35;4.03;48.03
77218;DHT22;66214;51.302;17.068;2023-04-03T17:29:04;4.02;48.02
77218;DHT22;66214;51.302;17.068;2023-04-03T17:31:33;4.01;47.99
77218;DHT22;66214;51.302;17.068;2023-04-03T17:34:01;3.99;48.30
77218;DHT22;66214;51.302;17.068;2023-04-03T17:36:31;3.96;48.49
77218;DHT22;66214;51.302;17.068;2023-04-03T17:39:01;3.94;48.68
77218;DHT22;66214;51.302;17.068;2023-04-03T17:41:29;3.92;48.75
77218;DHT22;66214;51.302;17.068;2023-04-03T17:43:58;3.89;48.84
77218;DHT22;66214;51.302;17.068;2023-04-03T17:46:26;3.85;49.42
77218;DHT22;66214;51.302;17.068;2023-04-03T17:48:56;3.81;49.16
77218;DHT22;66214;51.302;17.068;2023-04-03T17:51:26;3.81;48.99
77218;DHT22;66214;51.302;17.068;2023-04-03T17:53:55;3.79;49.11
77218;DHT22;66214;51.302;17.068;2023-04-03T17:56:25;3.79;49.36
77218;DHT22;66214;51.302;17.068;2023-04-03T17:58:54;3.77;49.78
77218;DHT22;66214;51.302;17.068;2023-04-03T18:01:29;3.75;50.17
77218;DHT22;66214;51.302;17.068;2023-04-03T18:04:01;3.74;50.13
77218;DHT22;66214;51.302;17.068;2023-04-03T18:06:33;3.71;50.18
77218;DHT22;66214;51.302;17.068;2023-04-03T18:09:07;3.68;49.96
77218;DHT22;66214;51.302;17.068;2023-04-03T18:11:45;3.64;50.54
77218;DHT22;66214;51.302;17.068;2023-04-03T18:14:17;3.59;50.81
77218;DHT22;66214;51.302;17.068;2023-04-03T18:16:49;3.53;51.34
77218;DHT22;66214;51.302;17.068;2023-04-03T18:19:18;3.47;51.14
77218;DHT22;66214;51.302;17.068;2023-04-03T18:21:47;3.41;51.76
77218;DHT22;66214;51.302;17.068;2023-04-03T18:24:17;3.36;51.91
77218;DHT22;66214;51.302;17.068;2023-04-03T18:26:52;3.34;52.55
77218;DHT22;66214;51.302;17.068;2023-04-03T18:29:27;3.31;52.15
77218;DHT22;66214;51.302;17.068;2023-04-03T18:31:58;3.32;52.18
77218;DHT22;66214;51.302;17.068;2023-04-03T18:34:32;3.30;52.12
77218;DHT22;66214;51.302;17.068;2023-04-03T18:37:00;3.32;51.97
77218;DHT22;66214;51.302;17.068;2023-04-03T18:39:30;3.32;52.17
77218;DHT22;66214;51.302;17.068;2023-04-03T18:42:02;3.30;52.73
77218;DHT22;66214;51.302;17.068;2023-04-03T18:44:34;3.30;52.56
77218;DHT22;66214;51.302;17.068;2023-04-03T18:47:05;3.26;52.45
77218;DHT22;66214;51.302;17.068;2023-04-03T18:49:36;3.24;52.47
77218;DHT22;66214;51.302;17.068;2023-04-03T18:52:07;3.19;52.99
77218;DHT22;66214;51.302;17.068;2023-04-03T18:54:37;3.14;53.58
77218;DHT22;66214;51.302;17.068;2023-04-03T18:57:06;3.13;53.23
77218;DHT22;66214;51.302;17.068;2023-04-03T18:59:37;3.12;53.21
77218;DHT22;66214;51.302;17.068;2023-04-03T19:02:06;3.12;53.86
77218;DHT22;66214;51.302;17.068;2023-04-03T19:07:40;3.12;53.38
77218;DHT22;66214;51.302;17.068;2023-04-03T19:10:11;3.13;53.74
77218;DHT22;66214;51.302;17.068;2023-04-03T19:12:44;3.13;53.54
77218;DHT22;66214;51.302;17.068;2023-04-03T19:15:15;3.12;53.93
77218;DHT22;66214;51.302;17.068;2023-04-03T19:17:48;3.09;54.48
77218;DHT22;66214;51.302;17.068;2023-04-03T19:20:16;3.04;54.36
77218;DHT22;66214;51.302;17.068;2023-04-03T19:22:45;3.01;54.69
77218;DHT22;66214;51.302;17.068;2023-04-03T19:25:16;3.01;53.98
77218;DHT22;66214;51.302;17.068;2023-04-03T19:27:44;3.00;54.07
77218;DHT22;66214;51.302;17.068;2023-04-03T19:30:13;3.01;54.85
77218;DHT22;66214;51.302;17.068;2023-04-03T19:32:58;3.00;54.41
77218;DHT22;66214;51.302;17.068;2023-04-03T19:35:27;2.99;55.30
77218;DHT22;66214;51.302;17.068;2023-04-03T19:37:56;2.97;55.28
77218;DHT22;66214;51.302;17.068;2023-04-03T19:40:25;2.97;54.54
77218;DHT22;66214;51.302;17.068;2023-04-03T19:42:56;2.93;54.99
77218;DHT22;66214;51.302;17.068;2023-04-03T19:45:25;2.88;55.65
77218;DHT22;66214;51.302;17.068;2023-04-03T19:47:54;2.85;55.39
77218;DHT22;66214;51.302;17.068;2023-04-03T19:50:28;2.82;55.26
77218;DHT22;66214;51.302;17.068;2023-04-03T19:52:56;2.77;55.76
77218;DHT22;66214;51.302;17.068;2023-04-03T19:55:29;2.70;56.13
77218;DHT22;66214;51.302;17.068;2023-04-03T19:57:59;2.64;55.97
77218;DHT22;66214;51.302;17.068;2023-04-03T20:00:29;2.57;55.45
77218;DHT22;66214;51.302;17.068;2023-04-03T20:02:59;2.52;55.82
77218;DHT22;66214;51.302;17.068;2023-04-03T20:05:28;2.45;56.60
77218;DHT22;66214;51.302;17.068;2023-04-03T20:07:56;2.39;57.03
77218;DHT22;66214;51.302;17.068;2023-04-03T20:10:24;2.33;56.53
77218;DHT22;66214;51.302;17.068;2023-04-03T20:12:53;2.27;56.63
77218;DHT22;66214;51.302;17.068;2023-04-03T20:15:21;2.18;57.25
77218;DHT22;66214;51.302;17.068;2023-04-03T20:17:49;2.09;57.89
77218;DHT22;66214;51.302;17.068;2023-04-03T20:20:17;2.03;57.60
77218;DHT22;66214;51.302;17.068;2023-04-03T20:22:46;1.92;58.43
